Terminal Aerodrome Forecast
Issued by NWS

Home | Current Version | Previous Version | Text Only | Print | Product List | Glossary On
Versions: 1 2 3 4 5 6 7 8 9 10 11 12 13 14 15
194
FTAK31 PAJN 281734
TAFAPG
TAF
PAPG 281734Z 2818/2918 VRB03KT 6SM BR SCT005 BKN035 OVC050
     FM282000 06004KT P6SM SCT020 BKN040
     FM290300 14005KT P6SM VCSH BKN025 OVC050
     FM291500 12005KT 6SM -SHRA BR BKN020 OVC035
      AMD NOT SKED=

USA.gov is the U.S. government's official web portal to all federal, state and local government web resources and services.